Time;durP1;ratioP1;P1;durP2;ratioP2;P2;SDS_P1;SDS_P2;PMS_P1;PMS_P2;Temp;Humidity;BMP_temperature;BMP_pressure;BME280_temperature;BME280_humidity;BME280_pressure;Samples;Min_cycle;Max_cycle;Signal;HPM_P1;HPM_P2
2022/01/11 00:01:16;;;;;;;57.00;23.23;;;2.70;85.50;;;;;;5034839;28;20177;-86
2022/01/11 00:03:42;;;;;;;49.40;23.07;;;2.80;85.90;;;;;;5033822;28;20650;-86
2022/01/11 00:06:30;;;;;;;50.60;23.45;;;3.10;86.00;;;;;;5038357;28;20466;-86
2022/01/11 00:09:01;;;;;;;53.58;25.35;;;3.10;85.80;;;;;;5049834;28;20178;-86
2022/01/11 00:11:27;;;;;;;51.15;25.13;;;3.00;85.30;;;;;;5054168;28;20176;-86
2022/01/11 00:13:53;;;;;;;54.35;23.77;;;2.90;85.20;;;;;;5055751;28;20173;-86
2022/01/11 00:16:20;;;;;;;46.83;24.42;;;3.00;85.40;;;;;;5055364;28;20189;-86
2022/01/11 00:18:45;;;;;;;54.70;23.70;;;2.80;85.30;;;;;;5055843;28;20256;-86
2022/01/11 00:21:11;;;;;;;46.30;23.53;;;2.80;85.50;;;;;;5053659;28;20211;-86
2022/01/11 00:26:05;;;;;;;45.13;23.23;;;3.00;85.70;;;;;;5057236;28;20533;-86
2022/01/11 00:28:31;;;;;;;53.00;20.92;;;3.00;85.40;;;;;;5052987;28;20201;-86
2022/01/11 00:30:57;;;;;;;46.75;20.45;;;2.90;85.40;;;;;;5035310;28;20181;-87
2022/01/11 00:33:37;;;;;;;55.67;22.80;;;2.80;85.60;;;;;;5034324;28;20201;-86
2022/01/11 00:36:06;;;;;;;50.22;23.98;;;2.60;85.90;;;;;;5053670;28;20264;-87
2022/01/11 00:38:36;;;;;;;49.10;22.52;;;2.60;86.40;;;;;;5054434;28;20189;-87
2022/01/11 00:41:05;;;;;;;45.45;21.10;;;2.60;86.70;;;;;;5063199;28;20199;-87
2022/01/11 00:43:33;;;;;;;51.80;23.73;;;2.60;86.70;;;;;;5069202;28;20634;-87
2022/01/11 00:45:59;;;;;;;48.53;22.00;;;2.50;87.00;;;;;;5044551;28;20401;-86
2022/01/11 00:48:25;;;;;;;46.25;22.25;;;2.60;87.00;;;;;;5033910;28;20202;-86
2022/01/11 00:50:51;;;;;;;45.75;21.92;;;2.70;86.80;;;;;;5045832;28;20180;-87
2022/01/11 00:53:18;;;;;;;50.30;23.67;;;2.80;86.70;;;;;;5053849;28;20175;-86
2022/01/11 00:55:45;;;;;;;50.13;21.50;;;2.80;86.40;;;;;;5058657;28;20217;-87
2022/01/11 00:58:11;;;;;;;40.90;20.83;;;2.90;86.20;;;;;;5044985;28;20186;-87
2022/01/11 01:00:50;;;;;;;52.97;23.48;;;2.90;86.00;;;;;;5036888;28;20178;-87
2022/01/11 01:03:16;;;;;;;48.70;21.55;;;2.90;85.70;;;;;;5053319;28;20598;-87
2022/01/11 01:05:43;;;;;;;44.78;22.75;;;3.20;85.60;;;;;;5053498;28;20577;-87
2022/01/11 01:08:09;;;;;;;44.78;19.73;;;3.20;85.20;;;;;;5053645;28;20200;-87
2022/01/11 01:10:36;;;;;;;44.77;21.87;;;3.10;84.80;;;;;;5046012;28;20186;-87
2022/01/11 01:13:05;;;;;;;44.33;21.25;;;3.20;84.80;;;;;;5033862;28;20177;-87
2022/01/11 01:15:34;;;;;;;49.83;21.23;;;3.30;84.70;;;;;;5037445;28;20187;-87
2022/01/11 01:18:00;;;;;;;54.47;21.30;;;3.40;85.20;;;;;;5037746;28;20186;-87
2022/01/11 01:20:25;;;;;;;42.33;21.40;;;3.40;84.40;;;;;;5038177;28;20188;-87
2022/01/11 01:22:51;;;;;;;44.20;23.33;;;3.60;83.90;;;;;;5040872;28;20174;-86
2022/01/11 01:25:20;;;;;;;46.42;21.85;;;3.60;83.30;;;;;;5043120;28;20198;-87
2022/01/11 01:27:48;;;;;;;40.60;22.05;;;3.70;83.00;;;;;;5041186;28;20214;-87
2022/01/11 01:30:21;;;;;;;45.38;21.33;;;3.70;82.90;;;;;;5037959;28;20718;-87
2022/01/11 01:32:48;;;;;;;36.58;21.08;;;3.70;82.80;;;;;;5038479;28;20657;-87
2022/01/11 01:35:14;;;;;;;49.78;23.35;;;3.80;82.60;;;;;;5037108;28;20588;-87
2022/01/11 01:37:40;;;;;;;43.97;21.30;;;3.90;82.30;;;;;;5042208;28;20206;-87
2022/01/11 01:40:07;;;;;;;52.83;23.50;;;3.80;82.10;;;;;;5039244;28;20750;-87
2022/01/11 01:42:34;;;;;;;44.22;23.00;;;3.70;82.30;;;;;;5042253;28;20420;-87
2022/01/11 01:45:02;;;;;;;48.92;22.75;;;3.90;82.00;;;;;;5053060;28;20239;-87
2022/01/11 01:47:28;;;;;;;37.40;21.15;;;3.70;81.50;;;;;;5071094;28;20611;-87
2022/01/11 01:49:55;;;;;;;44.63;20.98;;;3.50;81.70;;;;;;5062238;28;20181;-87
2022/01/11 01:52:22;;;;;;;53.38;24.15;;;3.40;82.10;;;;;;5057516;28;20539;-87
2022/01/11 01:54:51;;;;;;;48.78;21.38;;;3.50;82.50;;;;;;5063686;28;20176;-87
2022/01/11 01:57:17;;;;;;;52.20;22.52;;;3.60;82.60;;;;;;5065831;28;20311;-87
2022/01/11 01:59:43;;;;;;;42.15;21.40;;;3.70;82.60;;;;;;5060474;28;20185;-87
2022/01/11 02:02:10;;;;;;;50.03;21.30;;;3.60;82.30;;;;;;5056426;28;20260;-86
2022/01/11 02:04:36;;;;;;;48.90;22.63;;;3.40;82.30;;;;;;5057139;28;20791;-85
2022/01/11 02:07:02;;;;;;;51.87;21.07;;;3.50;82.60;;;;;;5040405;28;20240;-85
2022/01/11 02:09:28;;;;;;;48.33;23.27;;;3.50;82.70;;;;;;5035668;28;20212;-85
2022/01/11 02:11:53;;;;;;;47.83;20.57;;;3.60;82.80;;;;;;5048377;28;20423;-85
2022/01/11 02:14:19;;;;;;;43.57;22.50;;;3.60;82.60;;;;;;5055694;28;20173;-85
2022/01/11 02:16:45;;;;;;;43.27;20.17;;;3.60;82.60;;;;;;5047404;28;20517;-86
2022/01/11 02:19:11;;;;;;;44.77;20.17;;;3.60;82.50;;;;;;5035651;28;20435;-85
2022/01/11 02:21:38;;;;;;;45.23;21.20;;;3.50;82.70;;;;;;5037550;28;20224;-86
2022/01/11 02:24:04;;;;;;;44.53;20.08;;;3.60;82.70;;;;;;5054139;28;20427;-85
2022/01/11 02:26:30;;;;;;;42.28;21.75;;;3.70;82.60;;;;;;5057334;28;20233;-86
2022/01/11 02:28:56;;;;;;;46.13;20.45;;;3.70;82.40;;;;;;5041163;28;20158;-86
2022/01/11 02:31:22;;;;;;;44.30;21.17;;;3.60;82.10;;;;;;5036349;28;20256;-86
2022/01/11 02:33:54;;;;;;;42.80;21.00;;;3.70;82.10;;;;;;5036997;28;20428;-85
2022/01/11 02:36:21;;;;;;;50.58;21.73;;;3.70;82.00;;;;;;5053967;28;20444;-85
2022/01/11 02:38:48;;;;;;;53.05;21.88;;;3.70;81.90;;;;;;5073980;28;20193;-85
2022/01/11 02:41:14;;;;;;;45.58;20.30;;;3.70;82.00;;;;;;5058751;28;20195;-85
2022/01/11 02:43:47;;;;;;;44.57;19.87;;;3.80;82.10;;;;;;5047727;28;20721;-85
2022/01/11 02:46:13;;;;;;;40.22;18.90;;;3.70;81.80;;;;;;5035349;28;20532;-85
2022/01/11 02:48:39;;;;;;;37.05;18.08;;;3.80;81.80;;;;;;5035442;28;20214;-85
2022/01/11 02:51:12;;;;;;;46.57;20.53;;;3.60;81.60;;;;;;5046193;28;20204;-85
2022/01/11 02:53:43;;;;;;;42.90;18.40;;;3.40;82.00;;;;;;5047711;28;20186;-85
2022/01/11 02:56:09;;;;;;;38.42;17.52;;;3.40;82.40;;;;;;5035382;28;20213;-85
2022/01/11 02:58:35;;;;;;;41.75;17.50;;;3.40;82.70;;;;;;5035286;28;20223;-86
2022/01/11 03:01:00;;;;;;;41.30;18.70;;;3.50;82.80;;;;;;5051224;28;20193;-85
2022/01/11 03:03:26;;;;;;;37.03;15.43;;;3.30;82.70;;;;;;5055818;28;20408;-86
2022/01/11 03:05:55;;;;;;;39.90;18.77;;;3.30;82.80;;;;;;5054772;28;20875;-86
2022/01/11 03:08:22;;;;;;;47.13;20.05;;;3.30;82.80;;;;;;5047994;28;20471;-85
2022/01/11 03:10:49;;;;;;;56.90;20.10;;;3.30;82.90;;;;;;5034495;28;20186;-86
2022/01/11 03:13:16;;;;;;;48.85;18.90;;;3.40;83.00;;;;;;5036993;28;20171;-86
2022/01/11 03:15:43;;;;;;;37.33;16.13;;;3.40;83.00;;;;;;5037317;28;20225;-86
2022/01/11 03:18:09;;;;;;;41.40;18.33;;;3.40;82.90;;;;;;5046452;28;20203;-86
2022/01/11 03:20:36;;;;;;;49.63;19.23;;;3.30;83.00;;;;;;5055078;28;20280;-86
2022/01/11 03:23:03;;;;;;;35.97;17.35;;;3.40;83.00;;;;;;5049453;28;20660;-85
2022/01/11 03:25:29;;;;;;;38.45;17.60;;;3.30;82.80;;;;;;5038490;28;20205;-85
2022/01/11 03:27:55;;;;;;;31.02;15.98;;;3.20;82.90;;;;;;5035609;28;20205;-86
2022/01/11 03:30:21;;;;;;;37.47;18.83;;;3.30;83.10;;;;;;5039191;28;20174;-86
2022/01/11 03:32:47;;;;;;;32.63;15.15;;;3.30;83.20;;;;;;5052157;28;20180;-87
2022/01/11 03:35:13;;;;;;;38.47;17.30;;;3.20;83.20;;;;;;5034536;28;20265;-87
2022/01/11 03:37:40;;;;;;;39.60;16.70;;;3.10;83.20;;;;;;5035659;28;20441;-87
2022/01/11 03:40:10;;;;;;;37.05;16.42;;;3.10;83.50;;;;;;5034811;28;20210;-87
2022/01/11 03:42:36;;;;;;;42.95;15.90;;;3.20;83.60;;;;;;5034681;28;20268;-86
2022/01/11 03:45:03;;;;;;;36.58;17.10;;;3.20;83.70;;;;;;5038644;28;20201;-87
2022/01/11 03:47:29;;;;;;;32.05;16.45;;;3.10;83.60;;;;;;5036815;28;20244;-86
2022/01/11 03:49:55;;;;;;;35.30;16.17;;;3.20;83.70;;;;;;5036749;28;20186;-87
2022/01/11 03:52:20;;;;;;;31.30;15.87;;;3.20;83.50;;;;;;5037493;28;20423;-87
2022/01/11 03:57:25;;;;;;;32.15;15.65;;;3.10;83.20;;;;;;5057288;28;20239;-87
2022/01/11 03:59:52;;;;;;;33.22;15.25;;;2.90;83.40;;;;;;5055711;28;20245;-87
2022/01/11 04:02:18;;;;;;;38.95;16.73;;;2.90;83.70;;;;;;5054107;28;20178;-87
2022/01/11 04:04:52;;;;;;;33.60;16.88;;;2.90;83.90;;;;;;5048320;28;20190;-87
2022/01/11 04:07:19;;;;;;;30.77;16.02;;;2.90;84.20;;;;;;5034148;28;20210;-87
2022/01/11 04:09:45;;;;;;;37.50;18.10;;;2.80;84.10;;;;;;5045666;28;20182;-87
2022/01/11 04:12:11;;;;;;;34.37;15.93;;;3.00;84.40;;;;;;5033781;28;20684;-87
2022/01/11 04:14:38;;;;;;;35.60;15.93;;;3.10;84.30;;;;;;5033197;28;20176;-87
2022/01/11 04:17:04;;;;;;;31.88;16.92;;;3.10;84.20;;;;;;5052959;28;20435;-87
2022/01/11 04:19:29;;;;;;;40.60;16.63;;;2.90;84.10;;;;;;5063787;28;20193;-87
2022/01/11 04:21:55;;;;;;;33.83;15.50;;;2.90;84.20;;;;;;5058095;28;20196;-87
2022/01/11 04:24:21;;;;;;;38.27;16.17;;;2.90;84.40;;;;;;5053007;28;20184;-88
2022/01/11 04:26:47;;;;;;;29.83;14.73;;;2.80;84.40;;;;;;5037811;28;20220;-87
2022/01/11 04:29:13;;;;;;;29.85;14.77;;;2.80;84.30;;;;;;5034375;28;20630;-87
2022/01/11 04:31:39;;;;;;;29.27;14.47;;;2.90;84.30;;;;;;5033791;28;20182;-87
2022/01/11 04:34:04;;;;;;;30.47;16.37;;;3.00;84.10;;;;;;5049367;28;20189;-89
2022/01/11 04:36:30;;;;;;;34.70;15.40;;;3.00;84.10;;;;;;5064832;28;20209;-87
2022/01/11 04:38:56;;;;;;;36.47;15.40;;;2.90;83.80;;;;;;5054635;28;20516;-87
2022/01/11 04:41:21;;;;;;;29.00;14.30;;;2.80;83.80;;;;;;5051361;28;20197;-87
2022/01/11 04:43:47;;;;;;;29.97;15.20;;;2.80;83.90;;;;;;5037639;28;20181;-87
2022/01/11 04:46:18;;;;;;;31.23;15.13;;;2.90;84.10;;;;;;5056405;28;20205;-87
2022/01/11 04:48:47;;;;;;;27.42;14.77;;;2.90;84.70;;;;;;5075785;28;20470;-87
2022/01/11 04:51:13;;;;;;;31.45;14.18;;;2.80;83.70;;;;;;5074158;28;20177;-87
2022/01/11 04:53:39;;;;;;;30.45;14.35;;;2.90;83.70;;;;;;5060782;28;20214;-88
2022/01/11 04:56:16;;;;;;;26.50;13.32;;;3.00;83.60;;;;;;5062542;28;20742;-87
2022/01/11 04:58:41;;;;;;;32.75;14.70;;;3.00;83.40;;;;;;5059049;28;20218;-87
2022/01/11 05:01:07;;;;;;;26.50;13.50;;;3.00;83.20;;;;;;5057537;28;20819;-87
2022/01/11 05:03:33;;;;;;;27.77;13.32;;;2.70;83.00;;;;;;5057066;28;20928;-87
2022/01/11 05:05:59;;;;;;;25.55;13.27;;;2.70;83.00;;;;;;5059630;28;20208;-88
2022/01/11 05:08:25;;;;;;;24.05;11.95;;;2.70;83.20;;;;;;5057858;28;20201;-88
2022/01/11 05:10:51;;;;;;;22.33;13.07;;;2.80;83.30;;;;;;5051760;28;20181;-87
2022/01/11 05:13:18;;;;;;;31.03;13.87;;;2.80;83.40;;;;;;5036887;28;20747;-86
2022/01/11 05:15:45;;;;;;;27.02;12.73;;;2.70;83.30;;;;;;5037777;28;20261;-86
2022/01/11 05:18:11;;;;;;;34.40;12.73;;;2.60;83.30;;;;;;5038489;28;20261;-85
2022/01/11 05:20:37;;;;;;;21.00;11.45;;;2.60;83.50;;;;;;5039995;28;20216;-87
2022/01/11 05:23:04;;;;;;;24.23;12.93;;;2.80;83.60;;;;;;5042959;28;20174;-86
2022/01/11 05:25:31;;;;;;;20.10;12.13;;;2.80;83.40;;;;;;5046322;28;20190;-87
2022/01/11 05:27:59;;;;;;;24.23;12.63;;;2.90;83.20;;;;;;5041213;28;20209;-87
2022/01/11 05:30:25;;;;;;;24.35;12.65;;;2.90;83.00;;;;;;5041975;28;21755;-87
2022/01/11 05:32:51;;;;;;;28.25;13.45;;;2.70;82.80;;;;;;5058371;28;20199;-87
2022/01/11 05:35:20;;;;;;;19.63;10.80;;;2.80;83.00;;;;;;5064658;28;20185;-87
2022/01/11 05:37:46;;;;;;;20.45;10.43;;;2.80;82.90;;;;;;5064772;28;20438;-87
2022/01/11 05:40:13;;;;;;;24.08;12.35;;;2.70;83.00;;;;;;5063533;28;20185;-87
2022/01/11 05:42:40;;;;;;;23.38;12.90;;;2.70;83.00;;;;;;5060678;28;20665;-87
2022/01/11 05:45:07;;;;;;;29.27;12.73;;;2.60;83.10;;;;;;5057112;28;20193;-87
2022/01/11 05:47:33;;;;;;;24.33;12.50;;;2.50;83.30;;;;;;5056618;28;20216;-87
2022/01/11 05:50:15;;;;;;;27.70;12.32;;;2.60;83.50;;;;;;5056424;28;20272;-87
2022/01/11 05:52:42;;;;;;;22.33;12.73;;;2.60;83.80;;;;;;5056433;28;20168;-87
2022/01/11 05:55:10;;;;;;;20.52;10.23;;;2.70;83.90;;;;;;5056836;28;20177;-87
2022/01/11 05:57:36;;;;;;;25.83;11.18;;;2.60;83.70;;;;;;5058935;28;20280;-86
2022/01/11 06:00:05;;;;;;;18.58;10.57;;;2.80;83.70;;;;;;5053169;28;20592;-87
2022/01/11 06:02:31;;;;;;;22.58;10.40;;;2.70;83.50;;;;;;5036333;28;20650;-87
2022/01/11 06:04:56;;;;;;;25.30;11.27;;;2.60;83.40;;;;;;5035653;28;20182;-87
2022/01/11 06:07:22;;;;;;;20.73;11.43;;;2.70;84.30;;;;;;5036514;28;20210;-86
2022/01/11 06:09:47;;;;;;;20.37;11.43;;;2.80;83.50;;;;;;5036693;28;20181;-87
2022/01/11 06:12:13;;;;;;;23.33;11.40;;;2.70;83.40;;;;;;5038828;28;20646;-86
2022/01/11 06:14:39;;;;;;;20.17;10.40;;;2.80;83.30;;;;;;5038543;28;20174;-86
2022/01/11 06:17:05;;;;;;;17.47;9.57;;;2.90;83.10;;;;;;5038009;28;20565;-86
2022/01/11 06:19:31;;;;;;;23.03;11.17;;;2.90;82.80;;;;;;5038552;28;20269;-86
2022/01/11 06:21:58;;;;;;;26.55;12.80;;;2.70;82.50;;;;;;5037981;28;20452;-87
2022/01/11 06:24:24;;;;;;;20.92;10.38;;;2.80;82.60;;;;;;5040206;28;20220;-86
2022/01/11 06:26:50;;;;;;;19.67;11.00;;;3.00;82.70;;;;;;5039630;28;20726;-86
2022/01/11 06:29:15;;;;;;;24.30;10.57;;;3.00;82.40;;;;;;5047347;28;20177;-86
2022/01/11 06:31:41;;;;;;;19.90;10.27;;;3.00;82.30;;;;;;5058338;28;20423;-87
2022/01/11 06:34:07;;;;;;;21.17;11.10;;;3.10;82.20;;;;;;5053828;28;20169;-86
2022/01/11 06:36:32;;;;;;;25.03;11.10;;;3.00;81.90;;;;;;5038028;28;20248;-86
2022/01/11 06:38:58;;;;;;;16.33;9.67;;;3.10;82.10;;;;;;5057687;28;20231;-86
2022/01/11 06:41:25;;;;;;;18.93;9.20;;;3.10;82.10;;;;;;5063001;28;20411;-86
2022/01/11 06:43:53;;;;;;;18.02;9.77;;;3.00;81.90;;;;;;5072470;28;20173;-85
2022/01/11 06:46:21;;;;;;;20.25;10.07;;;3.00;81.90;;;;;;5058039;28;20578;-87
2022/01/11 06:48:46;;;;;;;21.63;10.50;;;2.90;82.10;;;;;;5055781;28;20288;-86
2022/01/11 06:51:12;;;;;;;24.30;11.97;;;3.00;82.00;;;;;;5057331;28;20611;-87
2022/01/11 06:53:38;;;;;;;19.60;10.20;;;2.90;82.10;;;;;;5056408;28;20172;-87
2022/01/11 06:56:03;;;;;;;21.13;10.40;;;2.90;82.30;;;;;;5050771;28;20204;-87
2022/01/11 06:58:29;;;;;;;18.43;10.07;;;2.90;82.40;;;;;;5055813;28;20181;-87
2022/01/11 07:00:55;;;;;;;16.70;8.90;;;2.90;82.40;;;;;;5049914;28;20174;-87
2022/01/11 07:03:20;;;;;;;21.97;9.87;;;2.70;82.30;;;;;;5044636;28;20209;-87
2022/01/11 07:05:46;;;;;;;22.33;10.93;;;2.70;82.50;;;;;;5039005;28;20289;-87
2022/01/11 07:08:12;;;;;;;21.77;10.77;;;2.70;82.90;;;;;;5039734;28;20225;-85
2022/01/11 07:10:38;;;;;;;22.08;9.10;;;2.80;83.00;;;;;;5036708;28;20227;-86
2022/01/11 07:13:04;;;;;;;18.20;10.35;;;2.90;82.90;;;;;;5035787;28;20178;-86
2022/01/11 07:15:31;;;;;;;17.85;10.38;;;2.90;82.70;;;;;;5034975;28;20306;-86
2022/01/11 07:17:57;;;;;;;18.42;9.35;;;3.00;82.50;;;;;;5035173;28;20233;-86
2022/01/11 07:20:23;;;;;;;19.33;10.30;;;3.00;82.50;;;;;;5034472;28;20193;-86
2022/01/11 07:22:49;;;;;;;21.05;10.80;;;3.00;82.10;;;;;;5035117;28;20397;-86
2022/01/11 07:25:15;;;;;;;18.00;8.80;;;2.90;81.90;;;;;;5035216;28;20273;-91
2022/01/11 07:27:40;;;;;;;14.98;8.68;;;3.00;82.00;;;;;;5036113;28;20476;-87
2022/01/11 07:30:07;;;;;;;21.30;11.00;;;3.10;82.00;;;;;;5034674;28;20174;-87
2022/01/11 07:32:35;;;;;;;22.10;10.88;;;3.10;81.80;;;;;;5033797;28;20218;-87
2022/01/11 07:35:03;;;;;;;20.50;9.63;;;3.00;82.30;;;;;;5033727;28;20269;-87
2022/01/11 07:37:29;;;;;;;18.70;10.68;;;3.10;81.80;;;;;;5035666;28;20198;-86
2022/01/11 07:39:55;;;;;;;20.08;10.60;;;3.20;81.60;;;;;;5034489;28;20273;-86
2022/01/11 07:42:21;;;;;;;17.57;9.33;;;3.10;81.60;;;;;;5037296;28;20242;-87
2022/01/11 07:44:50;;;;;;;18.00;9.87;;;3.10;81.50;;;;;;5038406;28;20181;-87
2022/01/11 07:47:19;;;;;;;20.27;11.25;;;3.20;81.40;;;;;;5036236;28;20460;-87
2022/01/11 07:49:47;;;;;;;29.48;11.35;;;3.00;81.20;;;;;;5035011;28;20190;-87
2022/01/11 07:52:15;;;;;;;23.80;11.70;;;3.10;81.50;;;;;;5036002;28;20174;-87
2022/01/11 07:54:41;;;;;;;18.30;10.25;;;3.10;81.50;;;;;;5038731;28;20177;-87
2022/01/11 07:57:07;;;;;;;19.23;10.20;;;3.20;81.40;;;;;;5040357;28;20201;-86
2022/01/11 07:59:33;;;;;;;18.42;10.65;;;3.30;81.30;;;;;;5041821;28;20186;-87
2022/01/11 08:01:59;;;;;;;24.83;10.43;;;3.10;81.10;;;;;;5037232;28;20201;-87
2022/01/11 08:04:30;;;;;;;21.98;10.90;;;2.90;81.10;;;;;;5033205;28;20269;-87
2022/01/11 08:06:57;;;;;;;17.33;9.95;;;2.80;81.50;;;;;;5034680;28;20289;-86
2022/01/11 08:09:23;;;;;;;18.45;8.98;;;3.00;81.60;;;;;;5033720;28;20177;-87
2022/01/11 08:11:50;;;;;;;19.20;10.30;;;3.10;81.70;;;;;;5033728;28;20193;-87
2022/01/11 08:14:16;;;;;;;24.50;10.55;;;3.10;81.40;;;;;;5042807;28;20454;-87
2022/01/11 08:16:42;;;;;;;20.50;10.02;;;3.20;81.10;;;;;;5054858;28;20574;-87
2022/01/11 08:19:07;;;;;;;33.73;10.97;;;3.30;81.10;;;;;;5054985;28;20235;-87
2022/01/11 08:21:33;;;;;;;20.50;9.67;;;3.40;80.70;;;;;;5062076;28;20176;-88
2022/01/11 08:23:59;;;;;;;20.47;9.97;;;3.40;80.40;;;;;;5066502;28;20227;-87
2022/01/11 08:26:25;;;;;;;20.27;10.57;;;3.40;80.20;;;;;;5056270;28;20197;-87
2022/01/11 08:28:50;;;;;;;18.67;10.80;;;3.40;80.10;;;;;;5056183;28;20197;-87
2022/01/11 08:31:17;;;;;;;27.10;10.43;;;3.20;80.00;;;;;;5061729;28;20564;-87
2022/01/11 08:33:42;;;;;;;20.15;9.95;;;3.10;80.20;;;;;;5057975;28;20737;-87
2022/01/11 08:36:08;;;;;;;18.90;9.77;;;3.20;80.50;;;;;;5070459;28;20225;-88
2022/01/11 08:38:35;;;;;;;30.23;10.50;;;3.30;80.50;;;;;;5058184;28;20474;-87
2022/01/11 08:41:01;;;;;;;22.27;11.10;;;3.30;80.50;;;;;;5051723;28;20187;-87
2022/01/11 08:43:27;;;;;;;24.67;12.18;;;3.20;80.30;;;;;;5034468;28;20178;-86
2022/01/11 08:45:53;;;;;;;18.80;10.07;;;3.30;80.20;;;;;;5034636;28;20288;-86
2022/01/11 08:48:18;;;;;;;24.17;11.13;;;3.40;80.20;;;;;;5035414;28;20206;-86
2022/01/11 08:50:44;;;;;;;18.67;10.73;;;3.60;80.10;;;;;;5035187;28;20520;-87
2022/01/11 08:53:10;;;;;;;17.97;9.33;;;3.60;79.70;;;;;;5034773;28;20239;-87
2022/01/11 08:55:36;;;;;;;22.02;9.80;;;3.60;79.40;;;;;;5035779;28;20273;-87
2022/01/11 08:58:03;;;;;;;23.47;9.60;;;3.80;79.20;;;;;;5037555;28;20649;-87
2022/01/11 09:00:28;;;;;;;18.88;9.85;;;3.90;78.90;;;;;;5041947;28;20439;-87
2022/01/11 09:02:54;;;;;;;20.07;11.20;;;3.90;78.50;;;;;;5036339;28;20177;-87
2022/01/11 09:05:22;;;;;;;17.20;9.27;;;3.90;78.40;;;;;;5048749;28;20181;-86
2022/01/11 09:07:48;;;;;;;16.75;9.13;;;4.00;78.00;;;;;;5055616;28;20700;-87
2022/01/11 09:10:15;;;;;;;17.70;8.35;;;4.10;77.90;;;;;;5065135;28;20189;-86
2022/01/11 09:12:40;;;;;;;16.60;9.45;;;4.20;77.60;;;;;;5071382;28;20200;-87
2022/01/11 09:15:09;;;;;;;20.70;9.90;;;4.30;77.40;;;;;;5052824;28;20186;-87
2022/01/11 09:17:36;;;;;;;17.25;9.60;;;4.40;76.80;;;;;;5043595;28;20523;-86
2022/01/11 09:20:05;;;;;;;16.98;8.10;;;4.40;76.70;;;;;;5044947;28;20186;-87
2022/01/11 09:22:31;;;;;;;20.30;8.98;;;4.60;76.70;;;;;;5036262;28;20671;-87
2022/01/11 09:24:57;;;;;;;15.48;8.93;;;4.40;76.50;;;;;;5035913;28;20190;-87
2022/01/11 09:27:23;;;;;;;20.77;10.27;;;4.30;76.90;;;;;;5033229;28;20698;-88
2022/01/11 09:29:49;;;;;;;30.03;10.50;;;4.50;77.20;;;;;;5046821;28;20186;-87
2022/01/11 09:32:15;;;;;;;17.40;8.73;;;4.30;76.90;;;;;;5054195;28;20465;-87
2022/01/11 09:34:41;;;;;;;24.35;9.55;;;4.30;77.10;;;;;;5054087;28;21015;-88
2022/01/11 09:37:08;;;;;;;20.25;8.50;;;4.30;77.30;;;;;;5056621;28;20197;-88
2022/01/11 09:39:35;;;;;;;21.92;9.63;;;4.50;77.70;;;;;;5056261;28;20253;-87
2022/01/11 09:42:01;;;;;;;14.55;9.30;;;4.60;77.60;;;;;;5056563;28;20185;-85
2022/01/11 09:44:27;;;;;;;19.95;9.52;;;4.60;77.20;;;;;;5054745;28;20177;-87
2022/01/11 09:46:54;;;;;;;22.33;9.35;;;4.50;77.10;;;;;;5056682;28;20213;-86
2022/01/11 09:49:19;;;;;;;17.27;9.73;;;4.60;76.50;;;;;;5057349;28;20810;-86
2022/01/11 09:51:45;;;;;;;19.23;9.33;;;4.60;75.90;;;;;;5059511;28;20178;-87
2022/01/11 09:54:12;;;;;;;18.08;9.10;;;4.60;75.30;;;;;;5064623;28;20415;-86
2022/01/11 09:56:39;;;;;;;22.98;10.63;;;4.70;75.60;;;;;;5062425;28;20220;-86
2022/01/11 09:59:06;;;;;;;20.23;10.73;;;4.70;75.30;;;;;;5051248;28;20178;-86
2022/01/11 10:01:33;;;;;;;20.25;9.00;;;4.60;74.80;;;;;;5043682;28;20301;-86
2022/01/11 10:04:11;;;;;;;20.48;9.55;;;4.80;74.90;;;;;;5037535;28;20275;-86
2022/01/11 10:06:39;;;;;;;18.45;10.98;;;4.50;74.60;;;;;;5036569;28;20197;-86
2022/01/11 10:09:21;;;;;;;21.02;9.25;;;4.40;75.20;;;;;;5037227;28;20654;-86
2022/01/11 10:11:52;;;;;;;21.92;9.65;;;4.40;75.60;;;;;;5037477;28;20320;-87
2022/01/11 10:14:31;;;;;;;23.63;10.13;;;4.50;75.70;;;;;;5045651;28;20154;-87
2022/01/11 10:17:27;;;;;;;18.50;9.35;;;4.60;75.40;;;;;;5049217;28;20223;-86
2022/01/11 10:20:11;;;;;;;19.45;9.18;;;4.80;75.10;;;;;;5036076;28;20228;-86
2022/01/11 10:23:02;;;;;;;19.17;9.90;;;4.70;74.40;;;;;;5036370;28;20235;-87
2022/01/11 10:25:29;;;;;;;28.10;10.65;;;4.60;74.50;;;;;;5036503;28;20205;-86
2022/01/11 10:27:59;;;;;;;22.73;10.07;;;4.80;74.60;;;;;;5052073;28;20223;-87
2022/01/11 10:30:26;;;;;;;20.55;10.32;;;4.90;74.00;;;;;;5044585;28;20166;-87
2022/01/11 10:32:57;;;;;;;33.13;10.65;;;5.00;73.40;;;;;;5041356;28;20272;-86
2022/01/11 10:35:29;;;;;;;21.00;10.18;;;4.80;72.70;;;;;;5056553;28;20201;-87
2022/01/11 10:38:01;;;;;;;20.80;9.57;;;5.10;72.80;;;;;;5056880;28;20281;-87
2022/01/11 10:40:42;;;;;;;21.50;9.20;;;5.30;72.10;;;;;;5056877;28;20174;-86
2022/01/11 10:43:14;;;;;;;17.85;9.48;;;5.20;71.30;;;;;;5058834;28;20200;-86
2022/01/11 10:45:45;;;;;;;20.50;9.18;;;5.10;70.90;;;;;;5056632;28;20169;-87
2022/01/11 10:48:18;;;;;;;23.20;9.25;;;5.20;70.60;;;;;;5057788;28;20200;-86
2022/01/11 10:50:49;;;;;;;20.20;9.32;;;5.40;70.80;;;;;;5049624;28;20184;-86
2022/01/11 10:53:16;;;;;;;20.08;9.85;;;5.70;70.80;;;;;;5057666;28;20196;-86
2022/01/11 10:55:43;;;;;;;17.92;9.10;;;5.90;70.90;;;;;;5057178;28;20204;-87
2022/01/11 10:58:11;;;;;;;17.30;9.63;;;6.10;69.80;;;;;;5055835;28;20212;-87
2022/01/11 11:00:42;;;;;;;21.02;9.70;;;6.30;68.80;;;;;;5055235;28;20189;-86
2022/01/11 11:03:21;;;;;;;23.52;8.68;;;6.30;68.00;;;;;;5056056;28;20208;-87
2022/01/11 11:05:49;;;;;;;19.25;9.07;;;6.10;67.50;;;;;;5055108;28;20211;-87
2022/01/11 11:08:26;;;;;;;17.27;8.30;;;6.20;67.90;;;;;;5055551;28;20304;-87
2022/01/11 11:10:55;;;;;;;21.35;8.38;;;6.40;67.50;;;;;;5055921;28;20176;-88
2022/01/11 11:13:41;;;;;;;20.15;8.55;;;6.50;67.20;;;;;;5055402;28;20194;-88
2022/01/11 11:16:26;;;;;;;20.25;9.52;;;6.60;66.70;;;;;;5055968;28;20205;-88
2022/01/11 11:18:54;;;;;;;20.27;8.35;;;6.90;66.40;;;;;;5061190;28;20552;-88
2022/01/11 11:21:28;;;;;;;18.85;9.27;;;7.00;66.50;;;;;;5056558;28;20188;-88
2022/01/11 11:23:59;;;;;;;20.92;9.63;;;7.20;66.70;;;;;;5054432;28;20536;-88
2022/01/11 11:26:29;;;;;;;18.45;8.77;;;7.20;64.70;;;;;;5055173;28;20193;-88
2022/01/11 11:28:56;;;;;;;21.10;9.60;;;7.10;63.80;;;;;;5055279;28;20205;-88
2022/01/11 11:31:22;;;;;;;20.63;8.85;;;7.40;64.00;;;;;;5055530;28;20178;-88
2022/01/11 11:33:50;;;;;;;18.92;8.82;;;7.50;63.60;;;;;;5055464;28;20184;-88
2022/01/11 11:36:17;;;;;;;22.33;8.85;;;7.60;63.00;;;;;;5054997;28;20200;-88
2022/01/11 11:38:48;;;;;;;15.45;8.60;;;7.70;63.00;;;;;;5056708;28;20201;-88
2022/01/11 11:41:15;;;;;;;24.08;11.73;;;7.80;62.40;;;;;;5056609;28;20161;-88
2022/01/11 11:43:41;;;;;;;20.98;9.35;;;7.50;61.00;;;;;;5053460;28;20181;-88
2022/01/11 11:46:07;;;;;;;15.93;7.85;;;7.50;61.00;;;;;;5054485;28;20559;-88
2022/01/11 11:48:33;;;;;;;16.73;8.90;;;7.40;60.90;;;;;;5054687;28;20272;-88
2022/01/11 11:51:06;;;;;;;14.40;7.70;;;7.70;61.70;;;;;;5054836;28;20498;-88
2022/01/11 11:53:37;;;;;;;12.55;7.55;;;7.80;61.30;;;;;;5054936;28;20663;-89
2022/01/11 11:56:25;;;;;;;17.27;9.73;;;7.80;61.10;;;;;;5055214;28;20197;-88
2022/01/11 11:58:57;;;;;;;20.23;7.47;;;7.70;60.70;;;;;;5054929;28;20227;-88
2022/01/11 12:01:44;;;;;;;17.42;7.60;;;7.60;60.50;;;;;;5054650;28;20177;-88
2022/01/11 12:04:15;;;;;;;21.05;8.07;;;7.30;61.00;;;;;;5055586;28;20173;-88
2022/01/11 12:06:42;;;;;;;28.08;7.60;;;7.20;61.10;;;;;;5068398;28;20256;-88
2022/01/11 12:09:15;;;;;;;17.48;6.57;;;7.10;60.80;;;;;;5065723;28;20243;-88
2022/01/11 12:11:47;;;;;;;17.35;6.53;;;7.10;61.40;;;;;;5059693;28;20240;-88
2022/01/11 12:14:33;;;;;;;11.32;6.20;;;7.20;61.00;;;;;;5050256;28;20174;-88
2022/01/11 12:17:23;;;;;;;15.60;6.90;;;7.60;60.60;;;;;;5042501;28;20293;-88
2022/01/11 12:19:56;;;;;;;16.42;7.60;;;7.50;59.70;;;;;;5050446;28;20173;-88
2022/01/11 12:22:26;;;;;;;23.92;6.47;;;7.20;59.70;;;;;;5048585;28;20340;-88
2022/01/11 12:24:55;;;;;;;28.10;8.15;;;7.20;60.10;;;;;;5045857;28;20261;-88
2022/01/11 12:27:23;;;;;;;15.18;6.93;;;7.30;60.40;;;;;;5056547;28;20210;-88
2022/01/11 12:29:52;;;;;;;13.23;6.38;;;7.40;60.70;;;;;;5040792;28;20207;-88
2022/01/11 12:32:21;;;;;;;15.65;8.30;;;7.40;60.80;;;;;;5047902;28;20182;-88
2022/01/11 12:34:49;;;;;;;17.27;8.02;;;7.50;61.10;;;;;;5038973;28;20182;-88
2022/01/11 12:37:40;;;;;;;10.00;6.05;;;7.40;61.00;;;;;;5035041;28;20677;-88
2022/01/11 12:40:26;;;;;;;16.48;8.15;;;7.30;61.20;;;;;;5038182;28;20186;-88
2022/01/11 12:43:00;;;;;;;25.35;7.57;;;7.40;61.40;;;;;;5041611;28;20174;-87
2022/01/11 12:46:05;;;;;;;18.35;7.95;;;7.40;61.70;;;;;;5034100;28;20192;-88
2022/01/11 12:49:01;;;;;;;16.20;8.05;;;7.40;62.00;;;;;;5036876;28;20236;-88
2022/01/11 12:51:29;;;;;;;15.52;7.63;;;7.40;62.10;;;;;;5035608;28;20196;-88